Terminal Aerodrome Forecast
Issued by NWS

Home | Current Version | Previous Version | Text Only | Print | Product List | Glossary On
Versions: 1 2 3 4 5 6 7 8 9 10 11 12
000
FTUS44 KBMX 301700
TAFANB
TAF
KANB 301729Z 3018/3118 19010KT P6SM VCTS BKN035CB BKN150
     FM302100 18010KT 4SM SHRA VCTS BKN035CB OVC050
     FM310500 VRB04KT P6SM BKN050
     FM311200 20007KT P6SM BKN015=

USA.gov is the U.S. government's official web portal to all federal, state and local government web resources and services.